Time;durP1;ratioP1;P1;durP2;ratioP2;P2;SDS_P1;SDS_P2;PMS_P1;PMS_P2;Temp;Humidity;BMP_temperature;BMP_pressure;BME280_temperature;BME280_humidity;BME280_pressure;Samples;Min_cycle;Max_cycle;Signal;HPM_P1;HPM_P2
2022/07/08 00:03:34;;;;;;;8.57;7.32;;;29.50;43.50;;;;;;4577153;57;21526;-32
2022/07/08 00:08:36;;;;;;;9.35;7.55;;;29.50;43.60;;;;;;4738832;57;21052;-31
2022/07/08 00:13:36;;;;;;;8.18;7.18;;;29.50;43.60;;;;;;4865154;57;21521;-29
2022/07/08 00:18:37;;;;;;;8.88;7.65;;;29.50;43.70;;;;;;4642398;57;21011;-31
2022/07/08 00:23:38;;;;;;;8.02;7.22;;;29.50;43.80;;;;;;4618146;57;21084;-32
2022/07/08 00:28:39;;;;;;;7.85;7.05;;;29.50;44.40;;;;;;4599499;57;21055;-34
2022/07/08 00:33:40;;;;;;;8.50;7.50;;;29.50;43.80;;;;;;4765393;56;21148;-30
2022/07/08 00:38:41;;;;;;;9.25;7.07;;;29.50;44.00;;;;;;4593557;57;21079;-31
2022/07/08 00:43:44;;;;;;;9.75;7.93;;;29.50;44.00;;;;;;4546688;61;21064;-33
2022/07/08 00:48:44;;;;;;;8.77;6.97;;;29.50;44.10;;;;;;4561683;57;21023;-29
2022/07/08 00:53:50;;;;;;;8.43;7.53;;;29.50;44.10;;;;;;4620651;57;21116;-30
2022/07/08 00:58:51;;;;;;;8.15;7.30;;;29.50;44.20;;;;;;4624838;57;21577;-31
2022/07/08 01:03:54;;;;;;;7.93;6.97;;;29.50;44.30;;;;;;4546299;61;21506;-28
2022/07/08 01:08:55;;;;;;;8.25;7.15;;;29.50;44.40;;;;;;4636165;57;21621;-30
2022/07/08 01:13:56;;;;;;;8.90;7.03;;;29.50;44.40;;;;;;4658286;57;21012;-32
2022/07/08 01:18:57;;;;;;;7.07;6.37;;;29.50;44.60;;;;;;4614711;57;21491;-32
2022/07/08 01:23:58;;;;;;;7.50;6.80;;;29.50;44.70;;;;;;4571794;57;21001;-29
2022/07/08 01:28:59;;;;;;;8.80;7.07;;;29.40;44.60;;;;;;4629693;57;21031;-31
2022/07/08 01:34:00;;;;;;;7.35;6.65;;;29.40;44.60;;;;;;4599395;57;20988;-30
2022/07/08 01:39:00;;;;;;;6.78;6.18;;;29.40;44.70;;;;;;4644506;57;21023;-30
2022/07/08 01:44:01;;;;;;;6.90;6.20;;;29.40;44.80;;;;;;4681785;57;21516;-28
2022/07/08 01:49:02;;;;;;;8.07;6.50;;;29.40;44.90;;;;;;4546998;61;21027;-32
2022/07/08 01:54:03;;;;;;;7.47;6.50;;;29.40;45.60;;;;;;4547097;57;21016;-30
2022/07/08 01:59:04;;;;;;;7.22;6.53;;;29.40;45.00;;;;;;4563738;57;21076;-30
2022/07/08 02:04:05;;;;;;;7.22;6.47;;;29.40;45.10;;;;;;4573598;57;21099;-28
2022/07/08 02:09:06;;;;;;;7.97;6.28;;;29.50;45.20;;;;;;4990579;56;21039;-28
2022/07/08 02:14:06;;;;;;;6.72;6.03;;;29.40;45.20;;;;;;4705610;57;21097;-28
2022/07/08 02:19:07;;;;;;;6.68;5.97;;;29.40;45.30;;;;;;4581904;57;21063;-29
2022/07/08 02:24:08;;;;;;;6.75;5.95;;;29.40;45.30;;;;;;4546502;61;21039;-30
2022/07/08 02:29:09;;;;;;;6.80;5.97;;;29.40;45.40;;;;;;4599603;57;21055;-28
2022/07/08 02:34:09;;;;;;;6.20;5.60;;;29.40;45.50;;;;;;4614096;57;21038;-29
2022/07/08 02:39:12;;;;;;;6.25;5.65;;;29.40;45.60;;;;;;4598368;57;21087;-31
2022/07/08 02:44:13;;;;;;;6.15;5.55;;;29.40;45.60;;;;;;4593641;57;21509;-30
2022/07/08 02:49:14;;;;;;;6.32;5.50;;;29.40;45.60;;;;;;4564072;57;21027;-29
2022/07/08 02:54:15;;;;;;;5.68;5.18;;;29.40;45.70;;;;;;4601551;57;21039;-34
2022/07/08 02:59:16;;;;;;;6.55;5.85;;;29.40;45.80;;;;;;4685687;57;21059;-35
2022/07/08 03:04:17;;;;;;;7.07;5.60;;;29.40;45.80;;;;;;4781197;57;21084;-33
2022/07/08 03:09:17;;;;;;;6.00;5.30;;;29.40;45.80;;;;;;4715069;57;21087;-30
2022/07/08 03:14:18;;;;;;;6.68;5.45;;;29.40;45.90;;;;;;4546559;61;21031;-30
2022/07/08 03:19:19;;;;;;;5.68;5.07;;;29.40;45.90;;;;;;4636683;57;21542;-30
2022/07/08 03:24:20;;;;;;;5.72;5.15;;;29.40;45.90;;;;;;4555680;57;21533;-30
2022/07/08 03:29:20;;;;;;;5.35;4.85;;;29.40;46.10;;;;;;4567091;57;21052;-30
2022/07/08 03:34:21;;;;;;;5.25;4.85;;;29.40;46.10;;;;;;4596592;57;21027;-29
2022/07/08 03:39:22;;;;;;;5.60;5.03;;;29.40;46.10;;;;;;4678627;57;21553;-32
2022/07/08 03:44:23;;;;;;;5.37;4.70;;;29.40;46.10;;;;;;4652704;57;21046;-33
2022/07/08 03:49:24;;;;;;;7.87;5.25;;;29.40;46.10;;;;;;4563032;57;21015;-30
2022/07/08 03:54:25;;;;;;;5.15;4.53;;;29.40;46.10;;;;;;4591252;57;21047;-31
2022/07/08 03:59:26;;;;;;;5.18;4.68;;;29.40;46.10;;;;;;4606570;57;21529;-29
2022/07/08 04:04:27;;;;;;;5.97;4.62;;;29.40;46.60;;;;;;4546348;61;21084;-33
2022/07/08 04:09:28;;;;;;;4.90;4.40;;;29.40;46.40;;;;;;4681665;57;21095;-32
2022/07/08 04:14:28;;;;;;;5.03;4.40;;;29.40;46.30;;;;;;4546630;61;21066;-27
2022/07/08 04:19:29;;;;;;;4.82;4.40;;;29.40;46.30;;;;;;4546730;61;21024;-31
2022/07/08 04:24:30;;;;;;;4.75;4.30;;;29.40;46.30;;;;;;4955386;57;21525;-32
2022/07/08 04:29:31;;;;;;;4.70;3.87;;;29.30;46.30;;;;;;4989864;57;21112;-31
2022/07/08 04:34:32;;;;;;;4.93;4.12;;;29.40;46.40;;;;;;4668549;57;21100;-33
2022/07/08 04:39:32;;;;;;;5.00;4.35;;;29.30;46.40;;;;;;4866637;57;21079;-32
2022/07/08 04:44:33;;;;;;;4.60;4.10;;;29.40;46.50;;;;;;4696865;57;21081;-31
2022/07/08 04:49:34;;;;;;;4.87;4.37;;;29.30;46.30;;;;;;4740996;57;21027;-30
2022/07/08 04:54:38;;;;;;;4.32;3.92;;;29.40;46.40;;;;;;4798561;57;21565;-32
2022/07/08 04:59:39;;;;;;;4.75;4.30;;;29.30;46.40;;;;;;4546604;61;21146;-30
2022/07/08 05:04:41;;;;;;;4.37;3.90;;;29.30;46.40;;;;;;4566255;56;21164;-31
2022/07/08 05:09:42;;;;;;;4.80;4.05;;;29.30;46.40;;;;;;4921527;56;21470;-31
2022/07/08 05:14:42;;;;;;;4.45;4.05;;;29.30;46.50;;;;;;4779393;57;21051;-33
2022/07/08 05:19:43;;;;;;;4.43;4.03;;;29.40;46.60;;;;;;4638728;57;21039;-34
2022/07/08 05:24:44;;;;;;;4.82;4.35;;;29.30;46.50;;;;;;4990349;57;21546;-31
2022/07/08 05:29:45;;;;;;;4.72;4.32;;;29.30;46.50;;;;;;4872295;56;21190;-32
2022/07/08 05:34:45;;;;;;;5.75;4.12;;;29.30;46.50;;;;;;4619803;57;21033;-30
2022/07/08 05:39:46;;;;;;;4.50;4.03;;;29.30;46.60;;;;;;4547292;57;21546;-33
2022/07/08 05:44:47;;;;;;;4.87;4.37;;;29.30;46.60;;;;;;4546387;61;21044;-28
2022/07/08 05:49:48;;;;;;;4.40;3.80;;;29.30;46.50;;;;;;4571741;57;21028;-30
2022/07/08 05:54:49;;;;;;;4.40;3.83;;;29.30;46.50;;;;;;4660436;57;21581;-29
2022/07/08 05:59:50;;;;;;;4.65;4.00;;;29.30;46.60;;;;;;4599569;57;21566;-29
2022/07/08 06:04:51;;;;;;;5.55;4.00;;;29.30;46.50;;;;;;4566200;57;21521;-29
2022/07/08 06:09:53;;;;;;;5.03;4.53;;;29.30;46.60;;;;;;4549126;57;21000;-29
2022/07/08 06:14:54;;;;;;;6.07;4.37;;;29.30;46.60;;;;;;4750442;57;21505;-31
2022/07/08 06:19:54;;;;;;;4.68;4.18;;;29.30;46.70;;;;;;4710174;56;21044;-29
2022/07/08 06:24:55;;;;;;;5.20;4.65;;;29.30;46.60;;;;;;4640836;57;21133;-30
2022/07/08 06:29:56;;;;;;;6.18;4.87;;;29.30;46.60;;;;;;4959074;57;21709;-30
2022/07/08 06:34:57;;;;;;;9.77;5.70;;;29.30;46.60;;;;;;4824981;57;21095;-30
2022/07/08 06:39:58;;;;;;;7.95;6.40;;;29.30;46.70;;;;;;4864163;57;21099;-28
2022/07/08 06:44:59;;;;;;;8.63;7.68;;;29.30;46.70;;;;;;4546500;61;21494;-30
2022/07/08 06:50:00;;;;;;;9.55;7.40;;;29.30;46.60;;;;;;4569141;57;21095;-29
2022/07/08 06:55:01;;;;;;;27.98;20.88;;;29.30;46.60;;;;;;4593287;57;21122;-26
2022/07/08 07:00:04;;;;;;;24.15;17.08;;;29.20;46.10;;;;;;4548965;57;21083;-27
2022/07/08 07:05:07;;;;;;;24.12;16.67;;;28.80;46.40;;;;;;4615971;56;21596;-29
2022/07/08 07:10:08;;;;;;;24.85;19.08;;;28.60;47.10;;;;;;4546524;61;21577;-27
2022/07/08 07:15:10;;;;;;;18.05;14.50;;;28.50;47.40;;;;;;4599388;57;21072;-25
2022/07/08 07:20:11;;;;;;;16.95;14.40;;;28.40;47.50;;;;;;4990215;56;21020;-26
2022/07/08 07:25:12;;;;;;;21.12;15.50;;;28.40;47.60;;;;;;4922444;56;21031;-25
2022/07/08 07:30:13;;;;;;;29.45;23.73;;;28.30;47.50;;;;;;4555199;57;21087;-26
2022/07/08 07:35:14;;;;;;;28.20;20.67;;;28.30;47.60;;;;;;4740614;57;21027;-28
2022/07/08 07:40:15;;;;;;;18.55;16.30;;;28.30;47.70;;;;;;4546663;61;21044;-29
2022/07/08 07:45:15;;;;;;;19.65;16.55;;;28.20;47.60;;;;;;4663320;57;21096;-29
2022/07/08 07:50:16;;;;;;;26.58;18.02;;;28.30;47.90;;;;;;4628886;57;21075;-27
2022/07/08 07:55:17;;;;;;;46.50;33.28;;;28.30;47.80;;;;;;4636196;57;21083;-29
2022/07/08 08:00:18;;;;;;;49.22;36.78;;;28.40;47.50;;;;;;4719487;57;21047;-29
2022/07/08 08:05:19;;;;;;;34.65;26.50;;;28.30;47.80;;;;;;4545691;61;21103;-26
2022/07/08 08:10:20;;;;;;;30.52;24.77;;;28.20;48.50;;;;;;4861282;57;21035;-28
2022/07/08 08:15:22;;;;;;;31.77;22.60;;;28.10;48.00;;;;;;4632249;57;21088;-29
2022/07/08 08:20:25;;;;;;;27.80;21.60;;;28.10;48.20;;;;;;4572009;57;21557;-28
2022/07/08 08:25:26;;;;;;;30.08;24.83;;;28.10;48.40;;;;;;4589568;57;21111;-28
2022/07/08 08:30:27;;;;;;;27.15;22.87;;;28.10;48.90;;;;;;4588109;57;21482;-28
2022/07/08 08:35:27;;;;;;;26.52;20.95;;;28.30;48.70;;;;;;4546493;61;21031;-28
2022/07/08 08:40:30;;;;;;;29.30;21.30;;;28.40;48.50;;;;;;4546213;61;21420;-28
2022/07/08 08:45:32;;;;;;;24.92;20.33;;;28.50;48.20;;;;;;4697117;56;21047;-29
2022/07/08 08:50:53;;;;;;;26.25;21.55;;;28.60;48.00;;;;;;4668302;57;21045;-27
2022/07/08 08:55:55;;;;;;;26.48;21.45;;;28.60;47.80;;;;;;4706018;57;21056;-28
2022/07/08 09:00:56;;;;;;;29.27;22.23;;;28.70;47.70;;;;;;4553296;57;21137;-28
2022/07/08 09:05:57;;;;;;;37.80;25.12;;;28.70;47.60;;;;;;4751217;57;21221;-29
2022/07/08 09:10:58;;;;;;;29.58;21.48;;;28.50;48.30;;;;;;4618101;57;21052;-26
2022/07/08 09:16:00;;;;;;;30.73;17.98;;;28.30;48.80;;;;;;4584787;56;21502;-26
2022/07/08 09:21:01;;;;;;;29.35;17.60;;;28.20;49.10;;;;;;4962590;56;21083;-29
2022/07/08 09:26:08;;;;;;;34.10;21.30;;;28.20;49.10;;;;;;4546082;61;21052;-25
2022/07/08 09:31:17;;;;;;;31.27;19.67;;;28.10;49.20;;;;;;4606154;57;21144;-31
2022/07/08 09:36:21;;;;;;;45.63;22.85;;;28.10;49.30;;;;;;4606306;57;31765;-31
2022/07/08 09:41:22;;;;;;;46.13;25.05;;;28.00;49.50;;;;;;4818005;57;21097;-29
2022/07/08 09:46:34;;;;;;;29.95;20.88;;;28.00;49.50;;;;;;4600494;57;41742;-28
2022/07/08 09:51:37;;;;;;;34.78;22.30;;;27.90;49.50;;;;;;4616318;57;21049;-27
2022/07/08 09:56:38;;;;;;;34.65;22.60;;;27.90;49.50;;;;;;4546979;61;21479;-30
2022/07/08 10:01:38;;;;;;;30.23;25.25;;;27.90;49.90;;;;;;4529794;57;49234;-28
2022/07/08 10:06:39;;;;;;;32.08;20.25;;;27.90;49.70;;;;;;4546197;57;21638;-28
2022/07/08 10:11:42;;;;;;;24.50;19.83;;;28.00;49.60;;;;;;4546740;61;21133;-32
2022/07/08 10:16:46;;;;;;;32.30;24.77;;;27.90;49.60;;;;;;4741759;57;21092;-29
2022/07/08 10:21:51;;;;;;;54.22;44.60;;;27.90;49.70;;;;;;4623516;57;21172;-28
2022/07/08 10:26:52;;;;;;;39.35;33.10;;;27.90;49.90;;;;;;4545680;61;21539;-27
2022/07/08 10:31:53;;;;;;;49.03;39.88;;;27.90;49.90;;;;;;4546376;61;21518;-30
2022/07/08 10:36:54;;;;;;;82.57;61.33;;;27.90;50.10;;;;;;4546362;57;21029;-29
2022/07/08 10:42:01;;;;;;;108.00;80.05;;;27.90;50.10;;;;;;4545875;57;21029;-31
2022/07/08 10:47:12;;;;;;;94.13;70.40;;;27.90;50.40;;;;;;4545360;61;21057;-31
2022/07/08 10:52:17;;;;;;;85.05;62.13;;;27.90;50.60;;;;;;4589461;57;21054;-28
2022/07/08 10:57:26;;;;;;;76.03;57.88;;;28.10;50.20;;;;;;4559726;57;21057;-29
2022/07/08 11:02:28;;;;;;;65.22;50.60;;;28.20;49.80;;;;;;4583844;57;21543;-30
2022/07/08 11:07:30;;;;;;;62.25;45.28;;;28.30;49.50;;;;;;4620985;57;21069;-28
2022/07/08 11:12:46;;;;;;;55.75;42.13;;;28.40;49.30;;;;;;4671222;57;21176;-27
2022/07/08 11:17:49;;;;;;;46.97;37.28;;;28.40;49.00;;;;;;4646834;57;21009;-27
2022/07/08 11:22:51;;;;;;;47.60;35.92;;;28.50;48.90;;;;;;4642072;57;21538;-29
2022/07/08 11:27:52;;;;;;;44.97;34.42;;;28.50;48.80;;;;;;4546289;61;21555;-28
2022/07/08 11:32:55;;;;;;;42.28;32.90;;;28.50;48.70;;;;;;4577137;57;21049;-27
2022/07/08 11:37:56;;;;;;;40.72;30.62;;;28.50;48.50;;;;;;4833695;57;21491;-28
2022/07/08 11:42:56;;;;;;;40.65;31.27;;;28.60;48.50;;;;;;4647508;57;21105;-28
2022/07/08 11:48:06;;;;;;;40.25;29.15;;;28.60;48.30;;;;;;4566022;57;21085;-27
2022/07/08 11:53:23;;;;;;;47.30;37.72;;;28.60;48.00;;;;;;4768046;57;21029;-29
2022/07/08 11:58:25;;;;;;;34.08;28.30;;;28.60;47.60;;;;;;4627310;55;43893;-29
2022/07/08 12:03:27;;;;;;;33.60;27.37;;;28.30;48.20;;;;;;4814143;57;44730;-28
2022/07/08 12:08:28;;;;;;;33.42;27.00;;;28.10;48.70;;;;;;4568831;59;35752;-32
2022/07/08 12:13:46;;;;;;;40.45;30.70;;;28.00;49.30;;;;;;4581533;59;35367;-29
2022/07/08 12:18:46;;;;;;;43.22;32.90;;;28.00;49.70;;;;;;4796395;57;21009;-31
2022/07/08 12:24:04;;;;;;;36.93;31.87;;;28.10;50.00;;;;;;4639514;57;112216;-31
2022/07/08 12:29:14;;;;;;;40.55;29.40;;;28.30;50.80;;;;;;4510249;61;21119;-26
2022/07/08 12:34:18;;;;;;;36.08;29.20;;;28.40;50.70;;;;;;4588782;55;37929;-30
2022/07/08 12:39:21;;;;;;;40.50;27.25;;;28.30;49.80;;;;;;5000732;55;48297;-29
2022/07/08 12:44:38;;;;;;;36.30;29.20;;;28.20;49.80;;;;;;4656280;55;80158;-30
2022/07/08 12:49:41;;;;;;;36.72;25.00;;;28.20;49.90;;;;;;4729945;57;21530;-29
2022/07/08 12:54:43;;;;;;;32.22;24.48;;;28.20;50.20;;;;;;4560131;61;21100;-28
2022/07/08 12:59:44;;;;;;;55.75;35.55;;;28.10;49.40;;;;;;4641466;57;21029;-32
2022/07/08 13:04:45;;;;;;;53.97;32.15;;;28.10;49.40;;;;;;4585799;57;21071;-27
2022/07/08 13:09:46;;;;;;;83.15;44.72;;;28.00;49.30;;;;;;4574762;57;21044;-29
2022/07/08 13:14:46;;;;;;;74.25;47.15;;;28.00;49.30;;;;;;4568751;57;21056;-29
2022/07/08 13:19:47;;;;;;;62.60;42.65;;;28.10;49.40;;;;;;4585697;57;21013;-27
2022/07/08 13:24:48;;;;;;;44.95;30.00;;;28.10;49.50;;;;;;4561186;61;21100;-30
2022/07/08 13:29:49;;;;;;;37.75;27.25;;;28.10;48.90;;;;;;4560564;61;21048;-28
2022/07/08 13:34:50;;;;;;;35.78;22.42;;;28.00;49.20;;;;;;4561039;58;21057;-30
2022/07/08 13:39:50;;;;;;;31.15;21.62;;;28.00;49.10;;;;;;4611099;57;21578;-30
2022/07/08 13:44:51;;;;;;;30.90;19.80;;;28.10;49.10;;;;;;4560824;61;21048;-29
2022/07/08 13:49:52;;;;;;;31.33;20.40;;;28.20;48.90;;;;;;4610165;57;21108;-33
2022/07/08 13:54:53;;;;;;;26.55;20.05;;;28.30;48.80;;;;;;4683373;57;21084;-34
2022/07/08 13:59:54;;;;;;;28.00;19.23;;;28.30;48.70;;;;;;4651232;57;21040;-30
2022/07/08 14:04:54;;;;;;;24.45;17.12;;;28.40;48.20;;;;;;4770183;57;21102;-29
2022/07/08 14:09:55;;;;;;;24.60;17.60;;;28.40;48.70;;;;;;4561426;59;21036;-30
2022/07/08 14:14:58;;;;;;;22.02;15.40;;;28.40;48.50;;;;;;4663942;57;21089;-32
2022/07/08 14:19:59;;;;;;;20.62;16.25;;;28.50;48.60;;;;;;4638164;57;21507;-30
2022/07/08 14:25:00;;;;;;;21.45;16.17;;;28.50;48.60;;;;;;4583391;57;21048;-33
2022/07/08 14:30:00;;;;;;;20.05;15.35;;;28.50;48.60;;;;;;4626560;57;21590;-34
2022/07/08 14:35:02;;;;;;;20.92;15.43;;;28.50;48.50;;;;;;4778250;57;21037;-33
2022/07/08 14:40:03;;;;;;;24.73;15.23;;;28.50;48.50;;;;;;4624398;57;21049;-35
2022/07/08 14:45:05;;;;;;;17.50;14.55;;;28.50;48.50;;;;;;4860789;57;21172;-32
2022/07/08 14:50:06;;;;;;;20.10;14.43;;;28.50;48.50;;;;;;4645146;57;21036;-32
2022/07/08 14:55:08;;;;;;;16.73;13.90;;;28.50;48.50;;;;;;4561706;57;21001;-32
2022/07/08 15:00:09;;;;;;;17.60;13.88;;;28.50;48.40;;;;;;4734405;57;21096;-30
2022/07/08 15:05:10;;;;;;;16.35;13.65;;;28.50;48.50;;;;;;4730044;57;21057;-30
2022/07/08 15:10:11;;;;;;;18.85;13.98;;;28.60;48.60;;;;;;4561412;58;21069;-30
2022/07/08 15:15:12;;;;;;;17.52;13.75;;;28.60;48.60;;;;;;4603002;57;21044;-31
2022/07/08 15:20:13;;;;;;;15.63;13.68;;;28.60;48.50;;;;;;4722234;57;21550;-26
2022/07/08 15:25:14;;;;;;;17.37;13.23;;;28.60;48.50;;;;;;4720727;57;21530;-29
2022/07/08 15:30:15;;;;;;;16.37;12.75;;;28.60;48.50;;;;;;4740220;57;21107;-33
2022/07/08 15:35:15;;;;;;;14.80;12.43;;;28.60;48.60;;;;;;4592317;57;21076;-35
2022/07/08 15:40:16;;;;;;;15.23;12.40;;;28.60;48.60;;;;;;4648440;57;21017;-33
2022/07/08 15:45:18;;;;;;;15.85;12.25;;;28.60;48.60;;;;;;4561030;61;21116;-32
2022/07/08 15:50:19;;;;;;;14.40;11.95;;;28.60;48.60;;;;;;4734647;57;21036;-32
2022/07/08 15:55:19;;;;;;;15.75;12.35;;;28.60;48.60;;;;;;4579374;57;21036;-33
2022/07/08 16:00:20;;;;;;;13.55;12.15;;;28.60;48.60;;;;;;4592870;57;21075;-32
2022/07/08 16:05:21;;;;;;;14.05;11.95;;;28.60;48.40;;;;;;4816802;57;21089;-31
2022/07/08 16:10:23;;;;;;;16.33;12.48;;;28.60;48.60;;;;;;4640033;57;21108;-29
2022/07/08 16:15:24;;;;;;;14.95;11.93;;;28.60;48.60;;;;;;4561623;61;21551;-30
2022/07/08 16:20:25;;;;;;;15.85;11.52;;;28.70;49.00;;;;;;4561261;61;21028;-32
2022/07/08 16:25:27;;;;;;;14.32;11.77;;;28.60;48.60;;;;;;4589108;57;21124;-34
2022/07/08 16:30:28;;;;;;;15.30;11.88;;;28.60;48.60;;;;;;4660564;57;21590;-28
2022/07/08 16:35:29;;;;;;;15.20;11.55;;;28.70;48.70;;;;;;4614063;57;21171;-32
2022/07/08 16:40:30;;;;;;;15.38;11.82;;;28.70;49.40;;;;;;4562205;57;21048;-29
2022/07/08 16:45:31;;;;;;;15.23;11.43;;;28.70;48.80;;;;;;4693635;57;21100;-35
2022/07/08 16:50:31;;;;;;;11.75;10.55;;;28.60;48.70;;;;;;4610656;57;21041;-33
2022/07/08 16:55:32;;;;;;;13.23;10.55;;;28.70;48.80;;;;;;5007750;57;21040;-34
2022/07/08 17:00:33;;;;;;;13.02;10.43;;;28.60;48.70;;;;;;4579643;57;21023;-30
2022/07/08 17:05:34;;;;;;;11.95;10.23;;;28.60;49.40;;;;;;4643684;57;21056;-30
2022/07/08 17:10:35;;;;;;;12.32;10.80;;;28.70;48.90;;;;;;4747213;57;21522;-32
2022/07/08 17:15:37;;;;;;;12.48;10.45;;;28.70;48.90;;;;;;4630696;57;21570;-31
2022/07/08 17:20:39;;;;;;;11.20;9.98;;;28.70;48.90;;;;;;4765110;57;21108;-30
2022/07/08 17:25:39;;;;;;;11.80;9.77;;;28.70;48.90;;;;;;4645994;57;21065;-29
2022/07/08 17:30:40;;;;;;;12.25;9.95;;;28.70;49.00;;;;;;4562910;57;21105;-30
2022/07/08 17:35:41;;;;;;;11.15;10.05;;;28.70;49.00;;;;;;4670756;57;21028;-29
2022/07/08 17:40:43;;;;;;;10.80;9.50;;;28.70;49.00;;;;;;4561872;61;21037;-34
2022/07/08 17:45:44;;;;;;;11.05;9.40;;;28.70;49.00;;;;;;4592093;57;21037;-33
2022/07/08 17:50:45;;;;;;;10.77;9.13;;;28.70;49.00;;;;;;4631794;57;21237;-29
2022/07/08 17:55:46;;;;;;;10.60;9.43;;;28.70;49.00;;;;;;4561920;58;21634;-30
2022/07/08 18:00:46;;;;;;;11.02;9.10;;;28.70;49.10;;;;;;4667267;57;21100;-30
2022/07/08 18:05:47;;;;;;;12.35;9.50;;;28.70;49.10;;;;;;4561017;58;21044;-31
2022/07/08 18:10:48;;;;;;;10.90;8.98;;;28.70;49.10;;;;;;4740650;57;21158;-30
2022/07/08 18:15:49;;;;;;;11.00;8.70;;;28.70;49.10;;;;;;4718888;57;21012;-32
2022/07/08 18:20:50;;;;;;;10.00;8.70;;;28.70;49.20;;;;;;4561655;58;21076;-31
2022/07/08 18:25:51;;;;;;;9.80;8.80;;;28.70;49.10;;;;;;4573459;57;21116;-32
2022/07/08 18:30:51;;;;;;;9.93;8.75;;;28.70;49.20;;;;;;4561843;61;21108;-32
2022/07/08 18:35:54;;;;;;;12.02;8.75;;;28.70;49.30;;;;;;4561624;61;21017;-32
2022/07/08 18:40:54;;;;;;;9.32;8.20;;;28.60;49.20;;;;;;4561582;58;21657;-30
2022/07/08 18:45:56;;;;;;;8.88;7.90;;;28.60;49.20;;;;;;4600251;57;21105;-29
2022/07/08 18:50:56;;;;;;;8.98;8.07;;;28.70;49.30;;;;;;4737765;57;21096;-34
2022/07/08 18:55:58;;;;;;;10.60;8.55;;;28.70;49.30;;;;;;4594850;57;21028;-28
2022/07/08 19:00:59;;;;;;;13.02;8.63;;;28.70;49.30;;;;;;4775694;57;21210;-30
2022/07/08 19:06:00;;;;;;;9.10;8.20;;;28.60;49.30;;;;;;4597265;57;21165;-31
2022/07/08 19:11:01;;;;;;;9.25;8.32;;;28.60;49.30;;;;;;4939231;57;21602;-31
2022/07/08 19:16:02;;;;;;;9.07;8.13;;;28.60;49.30;;;;;;4580701;57;21016;-31
2022/07/08 19:21:03;;;;;;;10.15;8.57;;;28.60;49.40;;;;;;4817601;57;21084;-30
2022/07/08 19:26:04;;;;;;;11.48;8.45;;;28.60;49.40;;;;;;4656875;57;21594;-30
2022/07/08 19:31:05;;;;;;;10.43;8.60;;;28.60;49.40;;;;;;4724600;57;21080;-30
2022/07/08 19:36:06;;;;;;;10.40;8.45;;;28.60;49.40;;;;;;4604685;57;21037;-30
2022/07/08 19:41:08;;;;;;;12.02;8.32;;;28.60;49.40;;;;;;4568009;57;21518;-35
2022/07/08 19:46:09;;;;;;;9.68;8.60;;;28.60;49.50;;;;;;4603668;57;21744;-31
2022/07/08 19:51:10;;;;;;;9.52;8.10;;;28.60;49.40;;;;;;4762003;57;21120;-32
2022/07/08 19:56:11;;;;;;;8.40;7.43;;;28.60;49.40;;;;;;4561670;57;21036;-28
2022/07/08 20:01:14;;;;;;;10.15;8.52;;;28.60;49.40;;;;;;4655678;57;21533;-31
2022/07/08 20:06:14;;;;;;;8.57;7.70;;;28.60;49.40;;;;;;4577818;57;21081;-29
2022/07/08 20:11:15;;;;;;;10.32;7.62;;;28.60;49.50;;;;;;4561396;61;21072;-30
2022/07/08 20:16:16;;;;;;;9.10;8.07;;;28.70;49.60;;;;;;4603670;57;21522;-28
2022/07/08 20:21:17;;;;;;;8.75;7.90;;;28.70;49.60;;;;;;4617655;57;21012;-30
2022/07/08 20:26:17;;;;;;;8.45;7.55;;;28.60;49.60;;;;;;4645590;57;21069;-30
2022/07/08 20:31:19;;;;;;;8.85;7.43;;;28.60;49.60;;;;;;4561422;61;21423;-30
2022/07/08 20:36:20;;;;;;;10.15;7.37;;;28.60;49.50;;;;;;4762565;57;21562;-29
2022/07/08 20:46:40;;;;;;;8.35;7.40;;;28.60;49.60;;;;;;4560831;61;21100;-34
2022/07/08 20:51:40;;;;;;;9.45;7.43;;;28.60;49.60;;;;;;4597747;57;21092;-34
2022/07/08 20:56:41;;;;;;;7.60;6.72;;;28.60;49.60;;;;;;4698293;57;21550;-33
2022/07/08 21:01:42;;;;;;;7.65;6.93;;;28.60;49.70;;;;;;4912900;57;21269;-33
2022/07/08 21:06:43;;;;;;;8.23;7.05;;;28.60;49.70;;;;;;4712780;57;21029;-32
2022/07/08 21:11:43;;;;;;;8.65;7.12;;;28.60;49.70;;;;;;4712478;57;21521;-31
2022/07/08 21:16:44;;;;;;;9.95;7.47;;;28.60;49.70;;;;;;4760953;57;21548;-29
2022/07/08 21:21:45;;;;;;;7.82;6.82;;;28.60;49.70;;;;;;4724541;57;21056;-29
2022/07/08 21:26:46;;;;;;;6.80;5.97;;;28.70;49.80;;;;;;4560672;61;21133;-28
2022/07/08 21:31:47;;;;;;;9.13;6.85;;;28.60;49.70;;;;;;4884428;57;21028;-30
2022/07/08 21:36:48;;;;;;;8.32;6.75;;;28.60;49.70;;;;;;4561663;61;21033;-34
2022/07/08 21:41:48;;;;;;;7.87;6.97;;;28.60;49.60;;;;;;4585793;57;21104;-31
2022/07/08 21:46:49;;;;;;;7.35;6.65;;;28.60;49.60;;;;;;4592651;57;21518;-30
2022/07/08 21:51:50;;;;;;;6.65;6.00;;;28.60;49.60;;;;;;4631839;57;21092;-32
2022/07/08 21:56:51;;;;;;;6.78;6.07;;;28.60;49.60;;;;;;4790767;57;21091;-30
2022/07/08 22:01:52;;;;;;;7.15;6.50;;;28.60;49.50;;;;;;4774891;57;21104;-30
2022/07/08 22:06:52;;;;;;;6.80;5.72;;;28.60;49.50;;;;;;4663871;57;21033;-30
2022/07/08 22:11:53;;;;;;;6.93;5.95;;;28.60;49.50;;;;;;4653477;57;21108;-33
2022/07/08 22:16:54;;;;;;;7.53;6.68;;;28.60;49.40;;;;;;4659354;57;21104;-33
2022/07/08 22:21:55;;;;;;;7.00;6.30;;;28.60;49.40;;;;;;4859394;57;21072;-35
2022/07/08 22:26:55;;;;;;;6.60;5.87;;;28.60;49.40;;;;;;4613199;57;21108;-31
2022/07/08 22:31:56;;;;;;;7.10;6.05;;;28.60;49.40;;;;;;4916622;57;21131;-28
2022/07/08 22:36:57;;;;;;;7.75;5.57;;;28.60;49.30;;;;;;4562840;57;21025;-28
2022/07/08 22:42:00;;;;;;;6.70;6.00;;;28.60;49.30;;;;;;4561631;61;21160;-31
2022/07/08 22:47:00;;;;;;;8.77;5.82;;;28.60;49.30;;;;;;4760568;57;21495;-34
2022/07/08 22:52:02;;;;;;;6.72;5.82;;;28.60;49.30;;;;;;4683374;57;21084;-33
2022/07/08 22:57:04;;;;;;;6.82;5.80;;;28.60;49.20;;;;;;4668690;57;21017;-33
2022/07/08 23:02:06;;;;;;;6.18;5.62;;;28.60;49.20;;;;;;4578884;57;21033;-33
2022/07/08 23:07:07;;;;;;;9.07;5.65;;;28.60;49.20;;;;;;4646962;57;21101;-32
2022/07/08 23:12:08;;;;;;;6.20;5.60;;;28.60;49.10;;;;;;4786234;57;21020;-30
2022/07/08 23:17:09;;;;;;;6.45;5.78;;;28.60;49.10;;;;;;4620985;57;21466;-27
2022/07/08 23:22:10;;;;;;;6.25;5.65;;;28.60;49.20;;;;;;4561621;61;21105;-31
2022/07/08 23:27:11;;;;;;;6.03;5.43;;;28.60;49.10;;;;;;4560500;61;21065;-32
2022/07/08 23:32:11;;;;;;;5.95;5.30;;;28.60;49.10;;;;;;4613605;57;21144;-31
2022/07/08 23:37:13;;;;;;;8.02;5.72;;;28.50;48.90;;;;;;4561851;61;21104;-31
2022/07/08 23:42:14;;;;;;;6.03;5.18;;;28.60;49.10;;;;;;4630756;57;21506;-30
2022/07/08 23:47:14;;;;;;;5.40;4.80;;;28.60;49.80;;;;;;4560846;61;21048;-31
2022/07/08 23:52:15;;;;;;;5.40;4.90;;;28.50;48.90;;;;;;4683449;57;21096;-31
2022/07/08 23:57:16;;;;;;;5.85;5.20;;;28.60;49.00;;;;;;4797724;57;21498;-34
